Time;durP1;ratioP1;P1;durP2;ratioP2;P2;SDS_P1;SDS_P2;PMS_P1;PMS_P2;Temp;Humidity;BMP_temperature;BMP_pressure;BME280_temperature;BME280_humidity;BME280_pressure;Samples;Min_cycle;Max_cycle;Signal;HPM_P1;HPM_P2
2022/09/19 00:01:28;;;;;;;19.33;2.90;;;12.10;99.90;;;;;;4996417;28;20761;-67
2022/09/19 00:04:06;;;;;;;14.90;2.03;;;12.10;99.90;;;;;;4995644;28;20368;-67
2022/09/19 00:06:37;;;;;;;19.17;2.70;;;12.10;99.90;;;;;;4997137;28;20273;-67
2022/09/19 00:09:06;;;;;;;18.80;2.57;;;12.10;99.90;;;;;;4996545;28;20278;-68
2022/09/19 00:11:32;;;;;;;23.47;3.10;;;12.10;99.90;;;;;;4996560;28;20365;-67
2022/09/19 00:14:03;;;;;;;21.67;2.30;;;12.00;99.90;;;;;;4996415;28;20281;-67
2022/09/19 00:16:34;;;;;;;20.80;3.47;;;12.00;99.90;;;;;;4996893;28;20309;-67
2022/09/19 00:19:02;;;;;;;17.17;2.33;;;12.00;99.90;;;;;;4996282;28;20286;-67
2022/09/19 00:21:31;;;;;;;20.43;2.77;;;12.00;99.90;;;;;;4996273;28;20304;-67
2022/09/19 00:26:43;;;;;;;19.85;3.00;;;12.00;99.90;;;;;;4996302;28;20274;-67
2022/09/19 00:29:09;;;;;;;18.23;3.07;;;11.90;99.90;;;;;;4996320;28;20069;-67
2022/09/19 00:31:36;;;;;;;25.60;3.27;;;11.90;99.90;;;;;;4996094;28;20285;-67
2022/09/19 00:34:06;;;;;;;21.60;2.23;;;11.90;99.90;;;;;;4996125;28;20273;-68
2022/09/19 00:36:37;;;;;;;16.63;3.40;;;11.90;99.90;;;;;;4996046;28;20645;-68
2022/09/19 00:39:06;;;;;;;19.27;3.70;;;11.90;99.90;;;;;;4995922;28;20754;-67
2022/09/19 00:41:32;;;;;;;18.97;3.03;;;11.90;99.90;;;;;;4995010;28;20285;-67
2022/09/19 00:44:04;;;;;;;19.07;2.47;;;11.90;99.90;;;;;;4994921;28;20677;-68
2022/09/19 00:46:33;;;;;;;22.63;2.77;;;11.90;99.90;;;;;;4995258;28;20808;-67
2022/09/19 00:49:09;;;;;;;19.00;3.50;;;11.80;99.90;;;;;;4995574;28;20289;-67
2022/09/19 00:51:39;;;;;;;17.20;2.87;;;11.80;99.90;;;;;;4995786;28;20327;-67
2022/09/19 00:54:12;;;;;;;18.70;2.33;;;11.80;99.90;;;;;;4995738;28;20277;-67
2022/09/19 00:56:45;;;;;;;21.13;2.73;;;11.80;99.90;;;;;;4996083;28;20356;-67
2022/09/19 00:59:12;;;;;;;25.10;2.90;;;11.70;99.90;;;;;;4996395;28;20281;-67
2022/09/19 01:01:39;;;;;;;16.13;2.50;;;11.70;99.90;;;;;;4996017;28;20626;-67
2022/09/19 01:04:16;;;;;;;19.90;2.37;;;11.70;99.90;;;;;;4995497;28;20281;-67
2022/09/19 01:06:50;;;;;;;21.33;2.80;;;11.70;99.90;;;;;;4995216;28;20749;-67
2022/09/19 01:09:40;;;;;;;15.10;2.93;;;11.70;99.90;;;;;;4994225;28;20282;-67
2022/09/19 01:12:16;;;;;;;20.67;2.60;;;11.70;99.90;;;;;;4995358;28;20287;-67
2022/09/19 01:15:02;;;;;;;22.67;2.60;;;11.70;99.90;;;;;;4994565;28;20294;-67
2022/09/19 01:17:42;;;;;;;25.50;3.20;;;11.70;99.90;;;;;;4995324;28;20286;-67
2022/09/19 01:20:35;;;;;;;21.20;3.17;;;11.70;99.90;;;;;;4995777;28;20324;-67
2022/09/19 01:23:35;;;;;;;31.73;2.80;;;11.70;99.90;;;;;;4969008;28;20320;-68
2022/09/19 01:26:36;;;;;;;28.03;3.40;;;11.70;99.90;;;;;;4995051;28;20274;-67
2022/09/19 01:29:20;;;;;;;19.77;2.73;;;11.70;99.90;;;;;;4995935;28;20293;-67
2022/09/19 01:31:51;;;;;;;19.57;2.70;;;11.70;99.90;;;;;;4995172;28;20797;-67
2022/09/19 01:34:32;;;;;;;28.80;3.83;;;11.70;99.90;;;;;;4995698;28;20285;-67
2022/09/19 01:37:12;;;;;;;22.47;3.23;;;11.60;99.90;;;;;;4994874;28;20320;-67
2022/09/19 01:39:41;;;;;;;23.57;2.93;;;11.60;99.90;;;;;;4994808;28;20286;-67
2022/09/19 01:42:12;;;;;;;21.57;2.80;;;11.60;99.90;;;;;;4994427;28;20670;-67
2022/09/19 01:44:38;;;;;;;16.50;3.00;;;11.60;99.90;;;;;;4994916;28;20281;-67
2022/09/19 01:47:07;;;;;;;23.33;3.63;;;11.50;99.90;;;;;;4994619;28;20345;-67
2022/09/19 01:49:47;;;;;;;21.50;3.87;;;11.60;99.90;;;;;;4994291;28;20398;-67
2022/09/19 01:52:21;;;;;;;22.00;2.67;;;11.60;99.90;;;;;;4994584;28;20325;-67
2022/09/19 01:55:03;;;;;;;24.23;3.17;;;11.60;99.90;;;;;;4994757;28;20285;-67
2022/09/19 01:58:04;;;;;;;14.30;2.53;;;11.60;99.90;;;;;;4993630;28;20050;-67
2022/09/19 02:00:31;;;;;;;24.80;3.23;;;11.50;99.90;;;;;;4934393;29;20295;-67
2022/09/19 02:03:38;;;;;;;19.50;3.77;;;11.60;99.90;;;;;;4982765;28;20296;-67
2022/09/19 02:06:14;;;;;;;20.87;3.03;;;11.60;99.90;;;;;;4961100;28;20308;-67
2022/09/19 02:08:40;;;;;;;22.30;3.60;;;11.70;99.90;;;;;;4994880;28;20309;-67
2022/09/19 02:11:14;;;;;;;28.63;3.53;;;11.60;99.90;;;;;;4994211;28;20332;-67
2022/09/19 02:13:45;;;;;;;26.10;4.50;;;11.70;99.90;;;;;;4994269;28;20104;-67
2022/09/19 02:16:36;;;;;;;24.30;3.50;;;11.70;99.90;;;;;;4994970;28;20077;-68
2022/09/19 02:19:09;;;;;;;25.97;4.00;;;11.80;99.90;;;;;;4994290;28;20320;-69
2022/09/19 02:21:54;;;;;;;16.83;2.87;;;11.90;99.90;;;;;;4994281;28;20273;-67
2022/09/19 02:24:31;;;;;;;20.83;3.00;;;11.90;99.90;;;;;;4994123;28;20344;-68
2022/09/19 02:27:07;;;;;;;27.23;3.33;;;11.90;99.90;;;;;;4994350;28;20280;-68
2022/09/19 02:29:37;;;;;;;23.17;2.93;;;12.00;99.90;;;;;;4994091;28;20325;-68
2022/09/19 02:32:04;;;;;;;26.37;3.87;;;11.90;99.90;;;;;;4994358;28;20552;-68
2022/09/19 02:34:30;;;;;;;24.03;3.20;;;12.00;99.90;;;;;;4993746;28;20294;-67
2022/09/19 02:37:12;;;;;;;21.10;4.13;;;12.00;99.90;;;;;;4994672;28;20359;-68
2022/09/19 02:39:55;;;;;;;18.20;3.10;;;12.00;99.90;;;;;;4993981;28;20273;-68
2022/09/19 02:42:32;;;;;;;21.73;3.07;;;12.00;99.90;;;;;;4993901;28;20285;-68
2022/09/19 02:45:12;;;;;;;23.30;3.00;;;12.00;99.90;;;;;;4993949;28;20423;-68
2022/09/19 02:47:47;;;;;;;22.30;2.93;;;12.00;99.90;;;;;;4993168;28;20292;-68
2022/09/19 02:50:29;;;;;;;22.90;3.70;;;12.00;99.90;;;;;;4993817;28;20282;-68
2022/09/19 02:52:57;;;;;;;23.53;3.43;;;12.00;99.90;;;;;;4993943;28;20108;-67
2022/09/19 02:55:28;;;;;;;23.07;3.87;;;12.00;99.90;;;;;;4993705;28;20324;-68
2022/09/19 02:57:57;;;;;;;23.83;4.03;;;12.00;99.90;;;;;;4994104;28;20327;-67
2022/09/19 03:00:25;;;;;;;22.20;3.10;;;12.00;99.90;;;;;;4994416;28;20300;-67
2022/09/19 03:02:59;;;;;;;23.57;3.30;;;12.00;99.90;;;;;;4993757;28;20309;-67
2022/09/19 03:05:27;;;;;;;18.95;2.47;;;12.00;99.90;;;;;;4994274;28;20323;-68
2022/09/19 03:07:59;;;;;;;21.70;3.17;;;12.00;99.90;;;;;;4993681;28;20067;-67
2022/09/19 03:10:30;;;;;;;20.30;2.87;;;12.10;99.90;;;;;;4997591;28;20281;-67
2022/09/19 03:13:00;;;;;;;24.70;3.47;;;12.10;99.90;;;;;;4997893;28;20282;-67
2022/09/19 03:15:49;;;;;;;23.03;2.87;;;12.10;99.90;;;;;;4997749;28;20793;-67
2022/09/19 03:18:18;;;;;;;18.63;3.00;;;12.10;99.90;;;;;;4997719;28;20364;-68
2022/09/19 03:20:51;;;;;;;23.93;3.10;;;12.00;99.90;;;;;;4997671;28;20278;-67
2022/09/19 03:23:23;;;;;;;23.43;3.90;;;12.10;99.90;;;;;;4997865;28;20278;-67
2022/09/19 03:25:49;;;;;;;24.83;3.03;;;12.00;99.90;;;;;;4997377;28;20746;-67
2022/09/19 03:28:19;;;;;;;26.23;3.60;;;12.00;99.90;;;;;;4995787;28;20290;-67
2022/09/19 03:30:48;;;;;;;23.27;3.37;;;12.00;99.90;;;;;;4997484;28;20376;-67
2022/09/19 03:33:15;;;;;;;28.43;3.50;;;12.00;99.90;;;;;;4997147;28;20288;-67
2022/09/19 03:35:46;;;;;;;24.13;2.70;;;11.90;99.90;;;;;;4997007;28;20372;-67
2022/09/19 03:38:12;;;;;;;24.30;3.07;;;11.90;99.90;;;;;;4997635;28;20281;-68
2022/09/19 03:40:38;;;;;;;22.23;3.00;;;11.80;99.90;;;;;;4996767;28;20285;-67
2022/09/19 03:43:04;;;;;;;23.07;2.77;;;11.80;99.90;;;;;;4997251;28;20042;-67
2022/09/19 03:45:30;;;;;;;22.10;3.13;;;11.70;99.90;;;;;;4996921;28;20046;-67
2022/09/19 03:47:56;;;;;;;22.80;2.70;;;11.70;99.90;;;;;;4997190;28;20618;-67
2022/09/19 03:50:23;;;;;;;21.43;2.50;;;11.70;99.90;;;;;;4996841;28;20096;-67
2022/09/19 03:52:49;;;;;;;22.87;2.70;;;11.60;99.90;;;;;;4997362;28;20286;-67
2022/09/19 03:55:15;;;;;;;19.83;2.63;;;11.60;99.90;;;;;;4996669;28;20365;-67
2022/09/19 03:57:41;;;;;;;17.23;2.57;;;11.60;99.90;;;;;;4996730;28;20824;-67
2022/09/19 04:00:07;;;;;;;18.17;2.47;;;11.50;99.90;;;;;;4996707;28;20282;-67
2022/09/19 04:02:34;;;;;;;20.63;2.47;;;11.50;99.90;;;;;;4996591;28;20050;-67
2022/09/19 04:05:02;;;;;;;20.27;2.20;;;11.50;99.90;;;;;;4996657;28;20285;-67
2022/09/19 04:07:28;;;;;;;22.50;2.93;;;11.50;99.90;;;;;;4996522;28;20277;-67
2022/09/19 04:09:56;;;;;;;17.77;2.63;;;11.40;99.90;;;;;;4996808;28;20324;-67
2022/09/19 04:12:23;;;;;;;17.90;2.63;;;11.40;99.90;;;;;;4996515;28;20305;-67
2022/09/19 04:14:49;;;;;;;15.80;2.20;;;11.40;99.90;;;;;;4996427;28;20377;-67
2022/09/19 04:17:15;;;;;;;15.40;2.77;;;11.40;99.90;;;;;;4996304;28;20432;-70
2022/09/19 04:19:42;;;;;;;17.93;2.53;;;11.40;99.90;;;;;;4996378;28;20147;-67
2022/09/19 04:22:09;;;;;;;14.70;2.33;;;11.30;99.90;;;;;;4995259;28;20281;-67
2022/09/19 04:24:40;;;;;;;26.67;2.53;;;11.30;99.90;;;;;;4996783;28;20364;-67
2022/09/19 04:27:08;;;;;;;14.43;1.90;;;11.30;99.90;;;;;;4996184;28;20300;-67
2022/09/19 04:29:35;;;;;;;21.53;2.23;;;11.30;99.90;;;;;;4996838;28;20303;-67
2022/09/19 04:32:02;;;;;;;18.13;2.30;;;11.30;99.90;;;;;;4996000;28;20282;-67
2022/09/19 04:34:28;;;;;;;15.50;2.57;;;11.30;99.90;;;;;;4995946;28;20285;-67
2022/09/19 04:36:56;;;;;;;13.50;2.20;;;11.30;99.90;;;;;;4994789;28;20373;-67
2022/09/19 04:39:22;;;;;;;18.30;2.37;;;11.20;99.90;;;;;;4996682;28;20285;-67
2022/09/19 04:41:52;;;;;;;18.80;2.23;;;11.30;99.90;;;;;;4994566;28;20634;-67
2022/09/19 04:44:21;;;;;;;20.50;2.30;;;11.30;99.90;;;;;;4994539;28;20297;-69
2022/09/19 04:46:49;;;;;;;19.43;2.63;;;11.30;99.90;;;;;;4995939;28;20356;-67
2022/09/19 04:49:16;;;;;;;17.00;2.37;;;11.30;99.90;;;;;;4996316;28;20281;-67
2022/09/19 04:51:42;;;;;;;17.70;2.87;;;11.30;99.90;;;;;;4996446;28;20285;-67
2022/09/19 04:54:09;;;;;;;17.67;2.47;;;11.40;99.90;;;;;;4994716;28;20294;-67
2022/09/19 04:56:35;;;;;;;18.67;2.83;;;11.40;99.90;;;;;;4995940;28;20329;-67
2022/09/19 04:59:00;;;;;;;16.20;3.33;;;11.40;99.90;;;;;;4995643;28;20324;-67
2022/09/19 05:01:26;;;;;;;19.03;2.87;;;11.40;99.90;;;;;;4995642;28;20058;-67
2022/09/19 05:03:52;;;;;;;15.57;2.57;;;11.40;99.90;;;;;;4995642;28;20077;-67
2022/09/19 05:06:18;;;;;;;20.93;3.17;;;11.40;99.90;;;;;;4995781;28;20383;-67
2022/09/19 05:08:44;;;;;;;15.30;2.17;;;11.40;99.90;;;;;;4995497;28;20120;-67
2022/09/19 05:11:10;;;;;;;17.83;2.30;;;11.40;99.90;;;;;;4995205;28;20565;-67
2022/09/19 05:13:38;;;;;;;19.47;2.83;;;11.40;99.90;;;;;;4995397;28;20285;-67
2022/09/19 05:16:04;;;;;;;13.63;2.63;;;11.40;99.90;;;;;;4995775;28;20294;-67
2022/09/19 05:18:34;;;;;;;21.87;2.67;;;11.40;99.90;;;;;;4995258;28;20332;-67
2022/09/19 05:21:07;;;;;;;18.90;2.20;;;11.30;99.90;;;;;;4995175;28;20312;-67
2022/09/19 05:23:35;;;;;;;16.07;2.40;;;11.30;99.90;;;;;;4995159;28;20466;-67
2022/09/19 05:26:06;;;;;;;18.67;2.60;;;11.30;99.90;;;;;;4995120;28;20277;-67
2022/09/19 05:28:32;;;;;;;18.83;2.67;;;11.30;99.90;;;;;;4995169;28;20637;-67
2022/09/19 05:30:59;;;;;;;18.70;2.10;;;11.30;99.90;;;;;;4995435;28;20361;-67
2022/09/19 05:33:28;;;;;;;14.60;2.20;;;11.30;99.90;;;;;;4994696;28;20050;-68
2022/09/19 05:35:55;;;;;;;16.93;2.30;;;11.30;99.90;;;;;;4995344;28;20305;-67
2022/09/19 05:38:23;;;;;;;10.13;1.80;;;11.20;99.90;;;;;;4995067;28;20304;-67
2022/09/19 05:40:56;;;;;;;17.50;2.07;;;11.20;99.90;;;;;;4994746;28;20372;-67
2022/09/19 05:43:22;;;;;;;18.67;2.50;;;11.20;99.90;;;;;;4994672;28;20769;-67
2022/09/19 05:45:52;;;;;;;13.40;1.90;;;11.20;99.90;;;;;;4995152;28;20281;-67
2022/09/19 05:48:19;;;;;;;16.90;2.60;;;11.20;99.90;;;;;;4994667;28;20293;-67
2022/09/19 05:50:47;;;;;;;18.47;2.30;;;11.30;99.90;;;;;;4995102;28;20273;-67
2022/09/19 05:55:58;;;;;;;12.68;1.80;;;11.40;99.90;;;;;;4994780;28;20363;-67
2022/09/19 05:58:25;;;;;;;17.23;2.33;;;11.40;99.90;;;;;;4994538;28;20077;-67
2022/09/19 06:00:51;;;;;;;17.70;1.90;;;11.40;99.90;;;;;;4993183;28;20686;-67
2022/09/19 06:03:20;;;;;;;13.77;1.77;;;11.50;99.90;;;;;;4994356;28;20289;-67
2022/09/19 06:05:48;;;;;;;11.80;2.17;;;11.40;99.90;;;;;;4994595;28;20626;-67
2022/09/19 06:08:15;;;;;;;16.23;2.43;;;11.40;99.90;;;;;;4994324;28;20281;-67
2022/09/19 06:10:43;;;;;;;9.93;2.10;;;11.40;99.90;;;;;;4993906;28;20281;-67
2022/09/19 06:13:22;;;;;;;12.20;2.10;;;11.50;99.90;;;;;;4993020;28;20282;-67
2022/09/19 06:15:49;;;;;;;14.67;3.40;;;11.50;99.90;;;;;;4994399;28;20301;-67
2022/09/19 06:18:15;;;;;;;14.00;2.50;;;11.50;99.90;;;;;;4994226;28;20288;-67
2022/09/19 06:20:42;;;;;;;15.20;2.00;;;11.50;99.90;;;;;;4994644;28;20328;-67
2022/09/19 06:23:10;;;;;;;13.30;2.30;;;11.50;99.90;;;;;;4994866;28;20347;-67
2022/09/19 06:25:37;;;;;;;25.83;2.70;;;11.60;99.90;;;;;;4994089;28;20270;-67
2022/09/19 06:28:07;;;;;;;18.07;2.47;;;11.70;99.90;;;;;;4993732;28;20296;-67
2022/09/19 06:30:33;;;;;;;16.57;2.77;;;11.70;99.90;;;;;;4994326;28;20281;-67
2022/09/19 06:32:59;;;;;;;16.03;2.77;;;11.80;99.90;;;;;;4994026;28;20417;-67
2022/09/19 06:35:29;;;;;;;15.73;2.30;;;11.90;99.90;;;;;;4993990;28;20318;-67
2022/09/19 06:38:08;;;;;;;17.80;3.13;;;12.00;99.90;;;;;;4994017;28;20085;-67
2022/09/19 06:40:37;;;;;;;14.20;2.63;;;12.10;99.90;;;;;;4994535;28;20352;-67
2022/09/19 06:43:05;;;;;;;11.87;3.10;;;12.20;99.90;;;;;;4994513;28;20367;-67
2022/09/19 06:45:32;;;;;;;18.20;3.13;;;;;;;;;;5000076;28;20331;-67
2022/09/19 06:48:01;;;;;;;15.80;2.53;;;12.30;99.90;;;;;;5000381;28;20282;-67
2022/09/19 06:50:27;;;;;;;17.67;3.10;;;12.50;99.90;;;;;;4999255;28;20293;-67
2022/09/19 06:52:55;;;;;;;14.50;2.60;;;14.10;99.90;;;;;;5000394;28;20340;-67
2022/09/19 06:55:23;;;;;;;15.07;2.93;;;14.40;99.90;;;;;;5000317;28;20278;-67
2022/09/19 06:57:57;;;;;;;14.20;3.07;;;15.40;99.90;;;;;;5000342;28;20347;-67
2022/09/19 07:00:24;;;;;;;15.07;2.83;;;15.70;99.90;;;;;;5000367;28;20309;-67
2022/09/19 07:02:59;;;;;;;13.17;2.70;;;;;;;;;;5000567;28;20307;-67
2022/09/19 07:05:26;;;;;;;19.05;2.80;;;15.70;99.90;;;;;;5000455;28;20286;-67
2022/09/19 07:07:52;;;;;;;11.53;2.70;;;15.70;99.90;;;;;;5000297;28;20054;-67
2022/09/19 07:10:22;;;;;;;11.17;2.63;;;15.90;99.90;;;;;;4999304;28;20061;-67
2022/09/19 07:13:01;;;;;;;14.40;2.57;;;16.00;99.90;;;;;;5000296;28;20050;-67
2022/09/19 07:15:35;;;;;;;15.63;3.13;;;17.00;99.90;;;;;;5000181;28;20406;-67
2022/09/19 07:18:01;;;;;;;14.50;2.50;;;;;;;;;;5000235;28;20046;-67
2022/09/19 07:20:28;;;;;;;15.23;2.97;;;18.20;99.90;;;;;;5000146;28;20050;-67
2022/09/19 07:23:11;;;;;;;13.23;2.90;;;18.80;99.90;;;;;;5000693;28;20053;-67
2022/09/19 07:25:37;;;;;;;16.97;2.43;;;19.50;99.90;;;;;;5000671;28;20050;-70
2022/09/19 07:28:06;;;;;;;12.73;2.90;;;;;;;;;;4999139;28;20387;-68
2022/09/19 07:30:34;;;;;;;13.60;2.33;;;;;;;;;;4999991;28;20057;-68
2022/09/19 07:33:01;;;;;;;12.30;2.60;;;;;;;;;;5000502;28;20053;-68
2022/09/19 07:35:29;;;;;;;10.10;2.53;;;19.80;99.90;;;;;;5000197;28;20054;-67
2022/09/19 07:37:55;;;;;;;12.27;2.70;;;19.30;99.90;;;;;;5000004;28;20050;-68
2022/09/19 07:40:22;;;;;;;13.30;3.23;;;;;;;;;;4999995;28;20086;-67
2022/09/19 07:42:48;;;;;;;17.27;2.93;;;18.20;99.90;;;;;;4999897;28;20046;-68
2022/09/19 07:45:16;;;;;;;13.70;3.07;;;17.90;99.90;;;;;;4999977;28;20101;-67
2022/09/19 07:47:46;;;;;;;15.07;2.87;;;17.60;99.90;;;;;;4998679;28;20053;-68
2022/09/19 07:50:14;;;;;;;15.27;3.70;;;16.90;99.90;;;;;;4999922;28;20050;-68
2022/09/19 07:52:41;;;;;;;14.27;2.90;;;;;;;;;;4999504;28;20490;-68
2022/09/19 07:55:10;;;;;;;16.70;2.90;;;;;;;;;;4999072;28;20560;-68
2022/09/19 07:57:36;;;;;;;23.30;3.63;;;16.70;99.90;;;;;;4996796;28;20054;-67
2022/09/19 08:00:03;;;;;;;16.33;4.17;;;16.50;99.90;;;;;;4996445;28;20130;-67
2022/09/19 08:02:29;;;;;;;20.00;4.03;;;16.30;99.90;;;;;;4996711;28;20061;-68
2022/09/19 08:04:54;;;;;;;22.67;3.87;;;16.10;99.90;;;;;;4996624;28;20058;-67
2022/09/19 08:07:20;;;;;;;14.37;3.17;;;15.90;99.90;;;;;;4996570;28;20046;-67
2022/09/19 08:09:46;;;;;;;18.00;2.90;;;15.90;99.90;;;;;;4997218;28;20057;-67
2022/09/19 08:12:12;;;;;;;15.97;3.03;;;15.80;99.90;;;;;;4996570;28;20042;-67
2022/09/19 08:14:38;;;;;;;13.80;3.03;;;15.90;99.90;;;;;;4995311;28;20111;-67
2022/09/19 08:17:04;;;;;;;16.30;3.33;;;15.90;99.90;;;;;;4996296;28;20039;-65
2022/09/19 08:19:30;;;;;;;14.50;2.90;;;15.90;99.90;;;;;;4996277;28;20061;-64
2022/09/19 08:21:57;;;;;;;13.97;3.53;;;15.90;99.90;;;;;;4996755;28;20051;-67
2022/09/19 08:24:23;;;;;;;14.10;2.60;;;15.80;99.90;;;;;;4996237;28;20073;-67
2022/09/19 08:26:49;;;;;;;13.87;2.60;;;15.80;99.90;;;;;;4996174;28;20043;-67
2022/09/19 08:29:15;;;;;;;20.90;3.20;;;15.80;99.90;;;;;;4996709;28;20070;-67
2022/09/19 08:31:41;;;;;;;16.50;2.87;;;15.80;99.90;;;;;;4996653;28;20046;-67
2022/09/19 08:34:09;;;;;;;14.00;2.63;;;15.80;99.90;;;;;;4996338;28;20112;-67
2022/09/19 08:36:36;;;;;;;12.67;2.70;;;15.80;99.90;;;;;;4996062;28;20051;-67
2022/09/19 08:39:03;;;;;;;19.23;3.27;;;15.70;99.90;;;;;;4996278;28;20069;-72
2022/09/19 08:41:34;;;;;;;15.93;3.07;;;15.80;99.90;;;;;;4996415;28;20533;-69
2022/09/19 08:44:35;;;;;;;15.77;3.20;;;15.50;99.90;;;;;;4995918;28;20455;-67
2022/09/19 08:47:09;;;;;;;12.87;2.80;;;15.50;99.90;;;;;;4996450;28;20046;-69
2022/09/19 08:49:59;;;;;;;13.23;3.30;;;15.20;99.90;;;;;;4995954;28;20042;-66
2022/09/19 08:52:47;;;;;;;18.37;3.40;;;15.10;99.90;;;;;;4996143;28;20288;-67
2022/09/19 08:55:32;;;;;;;15.47;3.60;;;15.10;99.90;;;;;;4996505;28;20053;-66
2022/09/19 08:58:05;;;;;;;12.25;2.65;;;15.10;99.90;;;;;;4996238;28;20054;-66
2022/09/19 09:00:37;;;;;;;12.43;2.53;;;15.20;99.90;;;;;;4996273;28;20042;-66
2022/09/19 09:03:36;;;;;;;15.77;3.70;;;15.20;99.90;;;;;;4995884;28;20121;-68
2022/09/19 09:06:29;;;;;;;12.23;3.47;;;15.20;99.90;;;;;;4995994;28;20375;-67
2022/09/19 09:09:20;;;;;;;14.07;2.60;;;15.10;99.90;;;;;;4996303;28;20117;-66
2022/09/19 09:12:07;;;;;;;9.97;2.33;;;15.10;99.90;;;;;;4996182;28;20141;-68
2022/09/19 09:15:03;;;;;;;14.43;2.50;;;15.20;99.90;;;;;;4995363;28;20046;-69
2022/09/19 09:17:31;;;;;;;;;;;15.20;99.90;;;;;;4995663;28;20501;-67
2022/09/19 09:20:24;;;;;;;10.43;2.23;;;15.20;99.90;;;;;;4995910;28;19922;-67
2022/09/19 09:23:12;;;;;;;17.20;3.13;;;15.10;99.90;;;;;;4995681;28;20058;-69
2022/09/19 09:25:48;;;;;;;13.43;2.43;;;15.20;99.90;;;;;;4995153;28;20047;-67
2022/09/19 09:28:14;;;;;;;11.30;2.67;;;15.40;99.90;;;;;;4994818;28;20061;-68
2022/09/19 09:30:44;;;;;;;10.57;1.93;;;15.50;99.90;;;;;;4993817;28;20050;-68
2022/09/19 09:33:26;;;;;;;12.23;2.57;;;15.50;99.90;;;;;;4995105;28;20453;-68
2022/09/19 09:35:59;;;;;;;13.70;2.63;;;15.40;99.90;;;;;;4994915;28;20046;-69
2022/09/19 09:38:52;;;;;;;11.77;2.70;;;15.20;99.90;;;;;;4995772;28;20169;-67
2022/09/19 09:41:47;;;;;;;16.17;2.63;;;15.20;99.90;;;;;;4994000;28;20570;-68
2022/09/19 09:44:13;;;;;;;16.55;3.22;;;15.10;99.90;;;;;;4981658;28;20066;-68
2022/09/19 09:46:53;;;;;;;13.53;3.13;;;15.10;99.90;;;;;;4994834;28;20049;-67
2022/09/19 09:49:27;;;;;;;9.03;2.30;;;15.20;99.90;;;;;;4995326;28;20086;-68
2022/09/19 09:52:07;;;;;;;10.43;2.27;;;15.30;99.90;;;;;;4994802;28;20517;-69
2022/09/19 09:57:44;;;;;;;6.57;1.60;;;15.30;99.90;;;;;;4994734;28;20058;-69
2022/09/19 10:06:04;;;;;;;15.48;3.15;;;15.30;99.90;;;;;;4994813;28;20427;-68
2022/09/19 10:08:56;;;;;;;13.60;3.03;;;15.30;99.90;;;;;;4994529;28;20054;-68
2022/09/19 10:11:42;;;;;;;14.10;3.63;;;15.30;99.90;;;;;;4995027;28;20453;-71
2022/09/19 10:14:18;;;;;;;12.27;2.70;;;15.30;99.90;;;;;;4994502;28;20078;-67
2022/09/19 10:16:52;;;;;;;12.43;2.87;;;15.20;99.90;;;;;;4994130;28;20101;-68
2022/09/19 10:19:39;;;;;;;11.83;3.53;;;15.20;99.90;;;;;;4993584;28;20082;-68
2022/09/19 10:22:11;;;;;;;15.57;3.40;;;15.30;99.90;;;;;;4994025;28;20479;-68
2022/09/19 10:24:55;;;;;;;15.97;2.90;;;15.30;99.90;;;;;;4994105;28;20438;-67
2022/09/19 10:27:38;;;;;;;17.15;3.70;;;15.30;99.90;;;;;;4993781;28;20058;-65
2022/09/19 10:30:24;;;;;;;17.30;3.67;;;15.30;99.90;;;;;;4993881;28;20453;-68
2022/09/19 10:32:50;;;;;;;12.30;2.53;;;15.30;99.90;;;;;;4993961;28;20050;-67
2022/09/19 10:35:37;;;;;;;16.97;3.50;;;15.30;99.90;;;;;;4993803;28;20481;-67
2022/09/19 10:38:13;;;;;;;17.77;3.83;;;15.30;99.90;;;;;;4994401;28;20495;-68
2022/09/19 10:40:56;;;;;;;13.23;3.23;;;15.60;99.90;;;;;;4993801;28;20058;-68
2022/09/19 10:43:33;;;;;;;16.23;2.93;;;15.70;99.90;;;;;;4993836;28;20057;-68
2022/09/19 10:46:05;;;;;;;17.17;3.70;;;15.70;99.90;;;;;;4993759;28;20538;-69
2022/09/19 10:48:37;;;;;;;15.17;3.00;;;15.70;99.90;;;;;;4994072;28;20517;-68
2022/09/19 10:51:13;;;;;;;18.90;3.17;;;15.60;99.90;;;;;;4993764;28;20050;-69
2022/09/19 10:53:45;;;;;;;13.27;2.97;;;15.50;99.90;;;;;;4994255;28;20137;-69
2022/09/19 10:56:22;;;;;;;12.70;2.30;;;15.40;99.90;;;;;;4994307;28;20121;-68
2022/09/19 10:58:59;;;;;;;15.53;3.33;;;15.40;99.90;;;;;;4994245;28;20046;-68
2022/09/19 11:01:26;;;;;;;12.70;2.67;;;15.50;99.90;;;;;;4993682;28;20050;-68
2022/09/19 11:04:26;;;;;;;18.57;3.57;;;15.50;99.90;;;;;;4993851;28;20069;-68
2022/09/19 11:07:03;;;;;;;14.47;3.30;;;15.50;99.90;;;;;;4993181;28;20050;-69
2022/09/19 11:09:37;;;;;;;14.83;2.90;;;15.40;99.90;;;;;;4993783;28;20050;-68
2022/09/19 11:12:22;;;;;;;13.40;2.93;;;15.30;99.90;;;;;;4993203;28;20502;-69
2022/09/19 11:14:49;;;;;;;16.02;2.80;;;15.10;99.90;;;;;;4994363;28;20109;-67
2022/09/19 11:18:02;;;;;;;17.93;3.10;;;15.00;99.90;;;;;;4993666;28;20420;-67
2022/09/19 11:20:30;;;;;;;15.07;3.77;;;14.90;99.90;;;;;;4933440;29;20044;-67
2022/09/19 11:23:13;;;;;;;13.17;2.70;;;14.80;99.90;;;;;;4981690;28;20059;-67
2022/09/19 11:25:51;;;;;;;17.23;3.13;;;14.70;99.90;;;;;;4993735;28;20479;-68
2022/09/19 11:28:30;;;;;;;15.13;2.90;;;14.70;99.90;;;;;;4993426;28;20085;-67
2022/09/19 11:31:27;;;;;;;17.60;2.73;;;14.70;99.90;;;;;;4995875;28;20506;-68
2022/09/19 11:34:30;;;;;;;14.70;3.47;;;14.80;99.90;;;;;;4997614;28;20046;-67
2022/09/19 11:37:25;;;;;;;18.47;3.20;;;14.90;99.90;;;;;;4996877;28;20053;-68
2022/09/19 11:39:57;;;;;;;;;;;14.80;99.90;;;;;;4998214;28;20117;-69
2022/09/19 11:42:36;;;;;;;17.50;2.97;;;14.80;99.90;;;;;;4996892;28;19921;-66
2022/09/19 11:45:13;;;;;;;13.07;2.60;;;14.80;99.90;;;;;;4997370;28;20050;-67
2022/09/19 11:47:50;;;;;;;18.23;3.20;;;15.00;99.90;;;;;;4997395;28;20051;-67
2022/09/19 11:50:22;;;;;;;14.67;2.73;;;15.10;99.90;;;;;;4997547;28;20046;-71
2022/09/19 11:53:19;;;;;;;17.20;3.17;;;15.20;99.90;;;;;;4997294;28;20043;-70
2022/09/19 11:56:05;;;;;;;20.53;3.87;;;15.20;99.90;;;;;;4997124;28;20038;-71
2022/09/19 11:58:54;;;;;;;18.93;3.77;;;15.10;99.90;;;;;;4997145;28;20446;-70
2022/09/19 12:01:46;;;;;;;16.40;3.03;;;15.10;99.90;;;;;;4996414;28;20085;-70
2022/09/19 12:04:40;;;;;;;17.80;3.47;;;15.20;99.90;;;;;;4996557;28;20042;-70
2022/09/19 12:07:14;;;;;;;10.90;2.50;;;15.30;99.90;;;;;;4997294;28;20045;-70
2022/09/19 12:09:45;;;;;;;13.70;3.55;;;15.40;99.90;;;;;;4996459;28;20053;-70
2022/09/19 12:12:15;;;;;;;15.77;3.03;;;15.50;99.90;;;;;;4996406;28;20046;-67
2022/09/19 12:14:46;;;;;;;18.60;3.33;;;15.60;99.90;;;;;;4996417;28;20096;-66
2022/09/19 12:17:42;;;;;;;19.57;4.37;;;15.50;99.90;;;;;;4996323;28;20053;-67
2022/09/19 12:20:37;;;;;;;17.23;2.90;;;15.20;99.90;;;;;;4996270;28;20104;-67
2022/09/19 12:26:03;;;;;;;14.67;2.80;;;14.80;99.90;;;;;;4997081;28;20042;-67
2022/09/19 12:28:35;;;;;;;8.87;2.03;;;14.60;99.90;;;;;;4996151;28;20062;-68
2022/09/19 12:31:06;;;;;;;13.13;3.00;;;14.50;99.90;;;;;;4996238;28;20050;-68
2022/09/19 12:33:54;;;;;;;15.10;3.00;;;14.50;99.90;;;;;;4996442;28;20093;-66
2022/09/19 12:36:32;;;;;;;13.90;2.57;;;14.40;99.90;;;;;;4995964;28;20096;-68
2022/09/19 12:39:26;;;;;;;15.77;3.27;;;14.30;99.90;;;;;;4996335;28;20055;-68
2022/09/19 12:42:08;;;;;;;13.73;2.63;;;;;;;;;;4995718;28;20061;-68
2022/09/19 12:44:52;;;;;;;11.77;2.40;;;14.30;99.90;;;;;;4996835;28;20050;-67
2022/09/19 12:47:54;;;;;;;14.38;3.10;;;14.30;99.90;;;;;;4995996;28;20040;-68
2022/09/19 12:50:20;;;;;;;17.40;3.37;;;14.30;99.90;;;;;;4994623;28;20065;-68
2022/09/19 12:53:16;;;;;;;17.73;3.57;;;14.30;99.90;;;;;;4995850;28;20047;-74
2022/09/19 12:56:06;;;;;;;15.70;4.23;;;14.40;99.90;;;;;;4995581;28;20147;-72
2022/09/19 12:58:43;;;;;;;8.57;2.23;;;14.60;99.90;;;;;;4995702;28;20052;-67
2022/09/19 13:01:26;;;;;;;11.23;2.30;;;14.60;99.90;;;;;;4995679;28;20089;-67
2022/09/19 13:04:37;;;;;;;13.90;2.20;;;14.70;99.90;;;;;;4995873;28;20372;-67
2022/09/19 13:07:09;;;;;;;17.03;2.60;;;14.70;99.90;;;;;;4974468;28;20506;-67
2022/09/19 13:09:54;;;;;;;11.27;2.30;;;14.80;99.90;;;;;;4995476;28;20129;-67
2022/09/19 13:12:32;;;;;;;9.75;2.30;;;14.80;99.90;;;;;;4995449;28;20196;-67
2022/09/19 13:15:05;;;;;;;16.13;3.07;;;14.80;99.90;;;;;;4995904;28;20050;-67
2022/09/19 13:23:35;;;;;;;14.47;3.20;;;14.90;99.90;;;;;;4995246;28;20090;-67
2022/09/19 13:26:16;;;;;;;14.83;2.93;;;14.90;99.90;;;;;;4995163;28;20085;-67
2022/09/19 13:28:51;;;;;;;14.40;2.97;;;14.90;99.90;;;;;;4994880;28;20058;-67
2022/09/19 13:31:19;;;;;;;12.57;3.10;;;14.90;99.90;;;;;;4995108;28;20061;-67
2022/09/19 13:33:52;;;;;;;15.27;3.00;;;14.80;99.90;;;;;;4995298;28;20149;-67
2022/09/19 13:36:39;;;;;;;13.60;3.13;;;14.80;99.90;;;;;;4994978;28;20050;-67
2022/09/19 13:39:43;;;;;;;14.37;2.53;;;14.70;99.90;;;;;;4995035;28;20050;-67